sensor_id;sensor_type;location;lat;lon;timestamp;pressure;altitude;pressure_sealevel;temperature;humidity
3590;BME280;1809;48.470;9.226;2023-03-21T00:00:37;70858.16;;;8.85;100.00
3590;BME280;1809;48.470;9.226;2023-03-21T00:03:02;72899.13;;;8.91;100.00
3590;BME280;1809;48.470;9.226;2023-03-21T00:05:28;72217.06;;;8.88;100.00
3590;BME280;1809;48.470;9.226;2023-03-21T00:07:54;71872.28;;;8.83;100.00
3590;BME280;1809;48.470;9.226;2023-03-21T00:10:20;72553.03;;;8.85;100.00
3590;BME280;1809;48.470;9.226;2023-03-21T00:12:45;72890.78;;;8.84;100.00
3590;BME280;1809;48.470;9.226;2023-03-21T00:15:15;71546.28;;;8.94;100.00
3590;BME280;1809;48.470;9.226;2023-03-21T00:17:43;69849.97;;;8.92;100.00
3590;BME280;1809;48.470;9.226;2023-03-21T00:20:09;70184.09;;;8.88;100.00
3590;BME280;1809;48.470;9.226;2023-03-21T00:22:40;71875.81;;;8.86;100.00
3590;BME280;1809;48.470;9.226;2023-03-21T00:25:06;70526.31;;;8.91;100.00
3590;BME280;1809;48.470;9.226;2023-03-21T00:27:32;67484.22;;;8.96;100.00
3590;BME280;1809;48.470;9.226;2023-03-21T00:29:57;65119.75;;;9.00;100.00
3590;BME280;1809;48.470;9.226;2023-03-21T00:32:25;63084.50;;;8.94;100.00
3590;BME280;1809;48.470;9.226;2023-03-21T00:34:51;64096.72;;;8.92;100.00
3590;BME280;1809;48.470;9.226;2023-03-21T00:37:16;62414.53;;;9.00;100.00
3590;BME280;1809;48.470;9.226;2023-03-21T00:39:44;62413.53;;;8.99;100.00
3590;BME280;1809;48.470;9.226;2023-03-21T00:42:14;63755.47;;;8.89;100.00
3590;BME280;1809;48.470;9.226;2023-03-21T00:44:40;66120.25;;;8.86;100.00
3590;BME280;1809;48.470;9.226;2023-03-21T00:47:09;64102.97;;;8.98;100.00
3590;BME280;1809;48.470;9.226;2023-03-21T00:49:36;60040.94;;;8.91;100.00
3590;BME280;1809;48.470;9.226;2023-03-21T00:52:08;62737.25;;;8.85;100.00
3590;BME280;1809;48.470;9.226;2023-03-21T00:54:35;63415.34;;;8.87;100.00
3590;BME280;1809;48.470;9.226;2023-03-21T00:57:04;63417.41;;;8.89;100.00
3590;BME280;1809;48.470;9.226;2023-03-21T00:59:33;62061.38;;;8.85;100.00
3590;BME280;1809;48.470;9.226;2023-03-21T01:01:59;62739.84;;;8.87;100.00
3590;BME280;1809;48.470;9.226;2023-03-21T01:04:32;62735.75;;;8.83;100.00
3590;BME280;1809;48.470;9.226;2023-03-21T01:07:02;63081.94;;;8.91;100.00
3590;BME280;1809;48.470;9.226;2023-03-21T01:09:30;63750.28;;;8.84;100.00
3590;BME280;1809;48.470;9.226;2023-03-21T01:11:56;66788.75;;;8.79;100.00
3590;BME280;1809;48.470;9.226;2023-03-21T01:14:23;67123.81;;;8.76;100.00
3590;BME280;1809;48.470;9.226;2023-03-21T01:16:50;66112.16;;;8.79;100.00
3590;BME280;1809;48.470;9.226;2023-03-21T01:19:21;64092.03;;;8.87;100.00
3590;BME280;1809;48.470;9.226;2023-03-21T01:21:48;60708.59;;;8.83;100.00
3590;BME280;1809;48.470;9.226;2023-03-21T01:24:13;59695.94;;;8.84;100.00
3590;BME280;1809;48.470;9.226;2023-03-21T01:26:39;61044.88;;;8.82;100.00
3590;BME280;1809;48.470;9.226;2023-03-21T01:29:05;62060.41;;;8.84;100.00
3590;BME280;1809;48.470;9.226;2023-03-21T01:31:31;60716.97;;;8.92;100.00
3590;BME280;1809;48.470;9.226;2023-03-21T01:33:57;55992.34;;;8.93;100.00
3590;BME280;1809;48.470;9.226;2023-03-21T01:36:25;58687.41;;;8.88;100.00
3590;BME280;1809;48.470;9.226;2023-03-21T01:38:53;60374.28;;;8.87;100.00
3590;BME280;1809;48.470;9.226;2023-03-21T01:41:28;59028.84;;;8.92;100.00
3590;BME280;1809;48.470;9.226;2023-03-21T01:43:54;56325.59;;;8.89;100.00
3590;BME280;1809;48.470;9.226;2023-03-21T01:51:49;62058.38;;;8.82;100.00
3590;BME280;1809;48.470;9.226;2023-03-21T01:54:21;64420.19;;;8.78;100.00
3590;BME280;1809;48.470;9.226;2023-03-21T01:56:50;66114.84;;;8.81;100.00
3590;BME280;1809;48.470;9.226;2023-03-21T01:59:23;66124.56;;;8.90;100.00
3590;BME280;1809;48.470;9.226;2023-03-21T02:01:50;64769.91;;;8.89;100.00
3590;BME280;1809;48.470;9.226;2023-03-21T02:04:18;64763.03;;;8.82;100.00
3590;BME280;1809;48.470;9.226;2023-03-21T02:06:58;66117.56;;;8.84;100.00
3590;BME280;1809;48.470;9.226;2023-03-21T02:09:28;66453.69;;;8.82;100.00
3590;BME280;1809;48.470;9.226;2023-03-21T02:11:57;67467.72;;;8.81;100.00
3590;BME280;1809;48.470;9.226;2023-03-21T02:14:22;69151.72;;;8.73;100.00
3590;BME280;1809;48.470;9.226;2023-03-21T02:19:31;68144.59;;;8.81;100.00
3590;BME280;1809;48.470;9.226;2023-03-21T02:25:09;65435.16;;;8.78;100.00
3590;BME280;1809;48.470;9.226;2023-03-21T02:27:55;68145.16;;;8.81;100.00
3590;BME280;1809;48.470;9.226;2023-03-21T02:30:41;64770.97;;;8.90;100.00
3590;BME280;1809;48.470;9.226;2023-03-21T02:33:38;63747.19;;;8.81;100.00
3590;BME280;1809;48.470;9.226;2023-03-21T02:36:22;66115.94;;;8.82;100.00
3590;BME280;1809;48.470;9.226;2023-03-21T02:44:24;68810.41;;;8.71;100.00
3590;BME280;1809;48.470;9.226;2023-03-21T02:47:19;70839.66;;;8.69;100.00
3590;BME280;1809;48.470;9.226;2023-03-21T02:49:46;72535.84;;;8.71;100.00
3590;BME280;1809;48.470;9.226;2023-03-21T02:52:19;73208.84;;;8.67;100.00
3590;BME280;1809;48.470;9.226;2023-03-21T02:54:48;74567.19;;;8.69;100.00
3590;BME280;1809;48.470;9.226;2023-03-21T02:57:17;74902.56;;;8.65;100.00
3590;BME280;1809;48.470;9.226;2023-03-21T02:59:46;75580.19;;;8.65;100.00
3590;BME280;1809;48.470;9.226;2023-03-21T03:02:14;76256.63;;;8.63;100.00
3590;BME280;1809;48.470;9.226;2023-03-21T03:04:41;77281.31;;;8.69;100.00
3590;BME280;1809;48.470;9.226;2023-03-21T03:10:02;74905.03;;;8.68;100.00
3590;BME280;1809;48.470;9.226;2023-03-21T03:12:52;72872.94;;;8.69;100.00
3590;BME280;1809;48.470;9.226;2023-03-21T03:15:44;74219.66;;;8.61;100.00
3590;BME280;1809;48.470;9.226;2023-03-21T03:18:19;76251.63;;;8.59;100.00
3590;BME280;1809;48.470;9.226;2023-03-21T03:26:33;80665.66;;;8.61;100.00
3590;BME280;1809;48.470;9.226;2023-03-21T03:29:08;80321.44;;;8.57;100.00
3590;BME280;1809;48.470;9.226;2023-03-21T03:31:40;79637.16;;;8.53;100.00
3590;BME280;1809;48.470;9.226;2023-03-21T03:34:12;79979.28;;;8.55;100.00
3590;BME280;1809;48.470;9.226;2023-03-21T03:36:42;78954.41;;;8.50;100.00
3590;BME280;1809;48.470;9.226;2023-03-21T03:39:13;79290.59;;;8.48;100.00
3590;BME280;1809;48.470;9.226;2023-03-21T03:41:50;79624.78;;;8.44;100.00
3590;BME280;1809;48.470;9.226;2023-03-21T03:44:19;80642.53;;;8.43;100.00
3590;BME280;1809;48.470;9.226;2023-03-21T03:49:26;82676.16;;;8.40;100.00
3590;BME280;1809;48.470;9.226;2023-03-21T03:51:57;84721.88;;;8.45;100.00
3590;BME280;1809;48.470;9.226;2023-03-21T03:54:31;86425.47;;;8.48;100.00
3590;BME280;1809;48.470;9.226;2023-03-21T03:56:59;87439.50;;;8.43;100.00
3590;BME280;1809;48.470;9.226;2023-03-21T03:59:25;90499.53;;;8.41;100.00
3590;BME280;1809;48.470;9.226;2023-03-21T04:01:51;91515.81;;;8.38;100.00
3590;BME280;1809;48.470;9.226;2023-03-21T04:04:16;92873.00;;;8.34;100.00
3590;BME280;1809;48.470;9.226;2023-03-21T04:06:43;94570.53;;;8.30;100.00
3590;BME280;1809;48.470;9.226;2023-03-21T04:09:10;96611.22;;;8.27;100.00
3590;BME280;1809;48.470;9.226;2023-03-21T04:11:36;96941.84;;;8.21;100.00
3590;BME280;1809;48.470;9.226;2023-03-21T04:14:01;97959.34;;;8.17;100.00
3590;BME280;1809;48.470;9.226;2023-03-21T04:16:26;98291.53;;;8.11;100.00
3590;BME280;1809;48.470;9.226;2023-03-21T04:18:52;98968.06;;;8.08;100.00
3590;BME280;1809;48.470;9.226;2023-03-21T04:21:18;98958.28;;;8.02;100.00
3590;BME280;1809;48.470;9.226;2023-03-21T04:23:44;99296.13;;;8.00;100.00
3590;BME280;1809;48.470;9.226;2023-03-21T04:26:09;98610.72;;;7.98;100.00
3590;BME280;1809;48.470;9.226;2023-03-21T04:28:35;97940.00;;;8.05;100.00
3590;BME280;1809;48.470;9.226;2023-03-21T04:31:03;95567.16;;;8.13;100.00
3590;BME280;1809;48.470;9.226;2023-03-21T04:33:29;93168.47;;;8.04;100.00
3590;BME280;1809;48.470;9.226;2023-03-21T04:35:54;90798.22;;;8.13;100.00
3590;BME280;1809;48.470;9.226;2023-03-21T04:38:24;89087.41;;;8.06;100.00
3590;BME280;1809;48.470;9.226;2023-03-21T04:40:51;87397.88;;;8.14;100.00
3590;BME280;1809;48.470;9.226;2023-03-21T04:43:16;83317.34;;;8.12;100.00
3590;BME280;1809;48.470;9.226;2023-03-21T04:45:42;81961.19;;;8.13;100.00
3590;BME280;1809;48.470;9.226;2023-03-21T04:48:08;80936.97;;;8.09;100.00
3590;BME280;1809;48.470;9.226;2023-03-21T04:50:33;82284.50;;;8.01;100.00
3590;BME280;1809;48.470;9.226;2023-03-21T04:52:58;83984.22;;;8.03;100.00
3590;BME280;1809;48.470;9.226;2023-03-21T04:55:24;85327.56;;;7.92;100.00
3590;BME280;1809;48.470;9.226;2023-03-21T04:57:52;87708.41;;;7.93;100.00
3590;BME280;1809;48.470;9.226;2023-03-21T05:00:18;88378.91;;;7.87;100.00
3590;BME280;1809;48.470;9.226;2023-03-21T05:02:43;90414.09;;;7.83;100.00
3590;BME280;1809;48.470;9.226;2023-03-21T05:05:09;93814.88;;;7.82;100.00
3590;BME280;1809;48.470;9.226;2023-03-21T05:07:39;95507.47;;;7.75;100.00
3590;BME280;1809;48.470;9.226;2023-03-21T05:10:07;96200.59;;;7.83;100.00
3590;BME280;1809;48.470;9.226;2023-03-21T05:12:33;96888.47;;;7.87;100.00
3590;BME280;1809;48.470;9.226;2023-03-21T05:14:58;92804.31;;;7.89;100.00
3590;BME280;1809;48.470;9.226;2023-03-21T05:17:24;90425.22;;;7.91;100.00
3590;BME280;1809;48.470;9.226;2023-03-21T05:19:52;90778.84;;;8.00;100.00
3590;BME280;1809;48.470;9.226;2023-03-21T05:22:18;87041.44;;;8.02;100.00
3590;BME280;1809;48.470;9.226;2023-03-21T05:24:44;84650.34;;;7.93;100.00
3590;BME280;1809;48.470;9.226;2023-03-21T05:27:18;84322.47;;;8.02;100.00
3590;BME280;1809;48.470;9.226;2023-03-21T05:30:09;81266.31;;;8.01;100.00
3590;BME280;1809;48.470;9.226;2023-03-21T05:32:35;80241.88;;;7.96;100.00
3590;BME280;1809;48.470;9.226;2023-03-21T05:35:01;81935.03;;;7.94;100.00
3590;BME280;1809;48.470;9.226;2023-03-21T05:37:27;84310.03;;;7.93;100.00
3590;BME280;1809;48.470;9.226;2023-03-21T05:39:52;86010.53;;;7.94;100.00
3590;BME280;1809;48.470;9.226;2023-03-21T05:42:18;88057.75;;;8.00;100.00
3590;BME280;1809;48.470;9.226;2023-03-21T05:44:44;85689.78;;;8.08;100.00
3590;BME280;1809;48.470;9.226;2023-03-21T05:47:11;83311.88;;;8.08;100.00
3590;BME280;1809;48.470;9.226;2023-03-21T05:49:37;82298.69;;;8.12;100.00
3590;BME280;1809;48.470;9.226;2023-03-21T05:52:03;82295.97;;;8.10;100.00
3590;BME280;1809;48.470;9.226;2023-03-21T05:54:28;86367.34;;;8.06;100.00
3590;BME280;1809;48.470;9.226;2023-03-21T05:56:53;92837.88;;;8.11;100.00
3590;BME280;1809;48.470;9.226;2023-03-21T05:59:19;96248.06;;;8.13;100.00
3590;BME280;1809;48.470;9.226;2023-03-21T06:01:44;95242.00;;;8.24;100.00
3590;BME280;1809;48.470;9.226;2023-03-21T06:04:10;91152.06;;;8.22;100.00
3590;BME280;1809;48.470;9.226;2023-03-21T06:06:35;88753.84;;;8.11;100.00
3590;BME280;1809;48.470;9.226;2023-03-21T06:09:00;92489.75;;;8.06;100.00
3590;BME280;1809;48.470;9.226;2023-03-21T06:11:28;95206.00;;;8.00;100.00
3590;BME280;1809;48.470;9.226;2023-03-21T06:13:55;97591.00;;;8.00;100.00
3590;BME280;1809;48.470;9.226;2023-03-21T06:16:20;98623.72;;;8.06;100.00
3590;BME280;1809;48.470;9.226;2023-03-21T06:18:46;98625.31;;;8.07;100.00
3590;BME280;1809;48.470;9.226;2023-03-21T06:21:11;98961.53;;;8.04;100.00
3590;BME280;1809;48.470;9.226;2023-03-21T06:23:37;98284.25;;;8.07;100.00
3590;BME280;1809;48.470;9.226;2023-03-21T06:26:03;98287.50;;;8.09;100.00
3590;BME280;1809;48.470;9.226;2023-03-21T06:28:28;97605.44;;;8.09;100.00
3590;BME280;1809;48.470;9.226;2023-03-21T06:30:54;94916.81;;;8.34;100.00
3590;BME280;1809;48.470;9.226;2023-03-21T06:33:19;88796.84;;;8.41;100.00
3590;BME280;1809;48.470;9.226;2023-03-21T06:35:50;85387.09;;;8.35;100.00
3590;BME280;1809;48.470;9.226;2023-03-21T06:38:16;86742.13;;;8.31;100.00
3590;BME280;1809;48.470;9.226;2023-03-21T06:40:41;88111.25;;;8.37;100.00
3590;BME280;1809;48.470;9.226;2023-03-21T06:43:07;87425.16;;;8.33;100.00
3590;BME280;1809;48.470;9.226;2023-03-21T06:45:32;89495.88;;;8.53;100.00
3590;BME280;1809;48.470;9.226;2023-03-21T06:47:57;82427.56;;;9.08;100.00
3590;BME280;1809;48.470;9.226;2023-03-21T06:50:22;66847.03;;;9.33;100.00
3590;BME280;1809;48.470;9.226;2023-03-21T06:52:48;52647.47;;;9.25;100.00
3590;BME280;1809;48.470;9.226;2023-03-21T06:55:13;51975.69;;;9.28;100.00
3590;BME280;1809;48.470;9.226;2023-03-21T06:57:39;57386.25;;;9.41;100.00
3590;BME280;1809;48.470;9.226;2023-03-21T07:00:04;62464.84;;;9.50;100.00
3590;BME280;1809;48.470;9.226;2023-03-21T07:02:32;54701.34;;;9.59;100.00
3590;BME280;1809;48.470;9.226;2023-03-21T07:04:57;44590.59;;;9.61;100.00
3590;BME280;1809;48.470;9.226;2023-03-21T07:07:24;31161.56;;;9.76;100.00
3590;BME280;1809;48.470;9.226;2023-03-21T07:09:50;21453.47;;;9.82;100.00
3590;BME280;1809;48.470;9.226;2023-03-21T07:12:15;20786.09;;;9.86;100.00
3590;BME280;1809;48.470;9.226;2023-03-21T07:14:41;1119.59;;;9.81;100.00
3590;BME280;1809;48.470;9.226;2023-03-21T07:17:06;-16445.13;;;9.91;100.00
3590;BME280;1809;48.470;9.226;2023-03-21T07:19:32;-16443.44;;;9.85;100.00
3590;BME280;1809;48.470;9.226;2023-03-21T07:21:57;-16439.78;;;9.71;100.00
3590;BME280;1809;48.470;9.226;2023-03-21T07:24:24;-15090.91;;;9.96;100.00
3590;BME280;1809;48.470;9.226;2023-03-21T07:26:50;-16454.13;;;10.23;100.00
3590;BME280;1809;48.470;9.226;2023-03-21T07:29:15;-16455.69;;;10.29;100.00
3590;BME280;1809;48.470;9.226;2023-03-21T07:31:41;-16460.31;;;10.45;100.00
3590;BME280;1809;48.470;9.226;2023-03-21T07:34:07;-16464.81;;;10.61;100.00
3590;BME280;1809;48.470;9.226;2023-03-21T07:36:32;-16460.16;;;10.45;100.00
3590;BME280;1809;48.470;9.226;2023-03-21T07:38:57;-16465.38;;;10.63;100.00
3590;BME280;1809;48.470;9.226;2023-03-21T07:41:23;-16469.88;;;10.79;100.00
3590;BME280;1809;48.470;9.226;2023-03-21T07:43:48;-16472.66;;;10.90;100.00
3590;BME280;1809;48.470;9.226;2023-03-21T07:46:13;-16472.09;;;10.88;100.00
3590;BME280;1809;48.470;9.226;2023-03-21T07:48:39;-16479.28;;;11.13;100.00
3590;BME280;1809;48.470;9.226;2023-03-21T07:51:04;-16481.09;;;11.20;100.00
3590;BME280;1809;48.470;9.226;2023-03-21T07:53:30;-16487.28;;;11.42;100.00
3590;BME280;1809;48.470;9.226;2023-03-21T07:55:55;-16485.59;;;11.36;100.00
3590;BME280;1809;48.470;9.226;2023-03-21T07:58:24;-16488.13;;;11.45;100.00
3590;BME280;1809;48.470;9.226;2023-03-21T08:00:50;-16492.59;;;11.61;100.00
3590;BME280;1809;48.470;9.226;2023-03-21T08:03:16;-16493.88;;;11.66;100.00
3590;BME280;1809;48.470;9.226;2023-03-21T08:05:41;-16499.63;;;11.86;100.00
3590;BME280;1809;48.470;9.226;2023-03-21T08:08:08;-16506.66;;;12.12;100.00
3590;BME280;1809;48.470;9.226;2023-03-21T08:10:33;-16512.81;;;12.34;100.00
3590;BME280;1809;48.470;9.226;2023-03-21T08:12:59;-16519.84;;;12.59;100.00
3590;BME280;1809;48.470;9.226;2023-03-21T08:15:24;-16528.81;;;12.91;100.00
3590;BME280;1809;48.470;9.226;2023-03-21T08:17:50;-16533.16;;;13.07;100.00
3590;BME280;1809;48.470;9.226;2023-03-21T08:20:18;-16542.72;;;13.41;100.00
3590;BME280;1809;48.470;9.226;2023-03-21T08:22:45;-16551.81;;;13.74;100.00
3590;BME280;1809;48.470;9.226;2023-03-21T08:25:12;-16544.81;;;13.49;100.00
3590;BME280;1809;48.470;9.226;2023-03-21T08:27:40;-16557.72;;;13.95;100.00
3590;BME280;1809;48.470;9.226;2023-03-21T08:30:07;-16549.16;;;13.65;100.00
3590;BME280;1809;48.470;9.226;2023-03-21T08:32:33;-16556.72;;;13.92;100.00
3590;BME280;1809;48.470;9.226;2023-03-21T08:35:00;-16555.75;;;13.88;100.00
3590;BME280;1809;48.470;9.226;2023-03-21T08:37:26;-16560.09;;;14.04;100.00
3590;BME280;1809;48.470;9.226;2023-03-21T08:39:53;-16554.91;;;13.85;100.00
3590;BME280;1809;48.470;9.226;2023-03-21T08:42:19;-16553.22;;;13.79;100.00
3590;BME280;1809;48.470;9.226;2023-03-21T08:44:46;-16560.81;;;14.07;100.00
3590;BME280;1809;48.470;9.226;2023-03-21T08:47:11;-16565.16;;;14.22;100.00
3590;BME280;1809;48.470;9.226;2023-03-21T08:49:37;-16564.44;;;14.20;100.00
3590;BME280;1809;48.470;9.226;2023-03-21T08:52:03;-16552.94;;;13.78;100.00
3590;BME280;1809;48.470;9.226;2023-03-21T08:54:28;-16558.28;;;13.97;100.00
3590;BME280;1809;48.470;9.226;2023-03-21T08:56:54;-16569.22;;;14.37;100.00
3590;BME280;1809;48.470;9.226;2023-03-21T08:59:20;-16572.59;;;14.49;100.00
3590;BME280;1809;48.470;9.226;2023-03-21T09:01:45;-16567.09;;;14.29;100.00
3590;BME280;1809;48.470;9.226;2023-03-21T09:04:12;-16571.03;;;14.43;100.00
3590;BME280;1809;48.470;9.226;2023-03-21T09:06:38;-16570.63;;;14.42;100.00
3590;BME280;1809;48.470;9.226;2023-03-21T09:09:05;-16575.94;;;14.61;100.00
3590;BME280;1809;48.470;9.226;2023-03-21T09:11:33;-16582.97;;;14.86;100.00
3590;BME280;1809;48.470;9.226;2023-03-21T09:13:59;-16584.34;;;14.91;100.00
3590;BME280;1809;48.470;9.226;2023-03-21T09:16:25;-16588.16;;;15.05;100.00
3590;BME280;1809;48.470;9.226;2023-03-21T09:18:50;-16585.75;;;14.96;100.00
3590;BME280;1809;48.470;9.226;2023-03-21T09:21:20;-16593.34;;;15.24;100.00
3590;BME280;1809;48.470;9.226;2023-03-21T09:23:47;-16587.44;;;15.02;100.00
3590;BME280;1809;48.470;9.226;2023-03-21T09:26:20;-16589.41;;;15.10;100.00
3590;BME280;1809;48.470;9.226;2023-03-21T09:28:46;-16598.66;;;15.43;100.00
3590;BME280;1809;48.470;9.226;2023-03-21T09:31:12;-16595.84;;;15.33;100.00
3590;BME280;1809;48.470;9.226;2023-03-21T09:33:43;-16602.59;;;15.57;100.00
3590;BME280;1809;48.470;9.226;2023-03-21T09:36:09;-16606.38;;;15.71;100.00
3590;BME280;1809;48.470;9.226;2023-03-21T09:38:45;-16608.19;;;15.77;100.00
3590;BME280;1809;48.470;9.226;2023-03-21T09:41:43;-16605.66;;;15.68;100.00
3590;BME280;1809;48.470;9.226;2023-03-21T09:47:02;-16613.78;;;15.97;100.00
3590;BME280;1809;48.470;9.226;2023-03-21T09:49:33;-16614.91;;;16.01;100.00
3590;BME280;1809;48.470;9.226;2023-03-21T09:52:02;-16620.53;;;16.22;100.00
3590;BME280;1809;48.470;9.226;2023-03-21T09:54:35;-16619.97;;;16.20;100.00
3590;BME280;1809;48.470;9.226;2023-03-21T09:57:09;-16620.09;;;16.20;100.00
3590;BME280;1809;48.470;9.226;2023-03-21T09:59:37;-16621.50;;;16.25;100.00
3590;BME280;1809;48.470;9.226;2023-03-21T10:02:34;-16617.72;;;16.11;100.00
3590;BME280;1809;48.470;9.226;2023-03-21T10:05:03;-16621.63;;;16.26;100.00
3590;BME280;1809;48.470;9.226;2023-03-21T10:07:39;-16618.28;;;16.13;100.00
3590;BME280;1809;48.470;9.226;2023-03-21T10:10:14;-16629.75;;;16.55;100.00
3590;BME280;1809;48.470;9.226;2023-03-21T10:12:41;-16640.41;;;16.93;100.00
3590;BME280;1809;48.470;9.226;2023-03-21T10:15:10;-16646.72;;;17.16;100.00
3590;BME280;1809;48.470;9.226;2023-03-21T10:17:46;-16653.84;;;17.42;100.00
3590;BME280;1809;48.470;9.226;2023-03-21T10:20:23;-16650.22;;;17.29;100.00
3590;BME280;1809;48.470;9.226;2023-03-21T10:22:51;-16654.13;;;17.43;100.00
3590;BME280;1809;48.470;9.226;2023-03-21T10:25:20;-16650.34;;;17.29;100.00
3590;BME280;1809;48.470;9.226;2023-03-21T10:27:47;-16658.75;;;17.59;100.00
3590;BME280;1809;48.470;9.226;2023-03-21T10:30:22;-16654.97;;;17.46;100.00
3590;BME280;1809;48.470;9.226;2023-03-21T10:32:49;-16657.50;;;17.55;100.00
3590;BME280;1809;48.470;9.226;2023-03-21T10:35:14;-16645.44;;;17.11;100.00
3590;BME280;1809;48.470;9.226;2023-03-21T10:37:39;-16653.56;;;17.41;100.00
3590;BME280;1809;48.470;9.226;2023-03-21T10:40:06;-16661.41;;;17.69;100.00
3590;BME280;1809;48.470;9.226;2023-03-21T10:42:33;-16661.41;;;17.69;100.00
3590;BME280;1809;48.470;9.226;2023-03-21T10:45:00;-16665.34;;;17.83;100.00
3590;BME280;1809;48.470;9.226;2023-03-21T10:47:27;-16666.03;;;17.86;100.00
3590;BME280;1809;48.470;9.226;2023-03-21T10:49:54;-16663.94;;;17.78;100.00
3590;BME280;1809;48.470;9.226;2023-03-21T10:52:22;-16673.72;;;18.13;100.00
3590;BME280;1809;48.470;9.226;2023-03-21T10:57:47;-16678.75;;;18.32;100.00
3590;BME280;1809;48.470;9.226;2023-03-21T11:00:20;-16681.00;;;18.40;100.00
3590;BME280;1809;48.470;9.226;2023-03-21T11:02:48;-16672.34;;;18.08;100.00
3590;BME280;1809;48.470;9.226;2023-03-21T11:05:22;-16678.22;;;18.30;100.00
3590;BME280;1809;48.470;9.226;2023-03-21T11:07:58;-16686.88;;;18.61;100.00
3590;BME280;1809;48.470;9.226;2023-03-21T11:10:31;-16686.06;;;18.58;100.00
3590;BME280;1809;48.470;9.226;2023-03-21T11:13:01;-16688.28;;;18.66;100.00
3590;BME280;1809;48.470;9.226;2023-03-21T11:15:31;-16681.84;;;18.43;100.00
3590;BME280;1809;48.470;9.226;2023-03-21T11:17:58;-16691.38;;;18.77;100.00
3590;BME280;1809;48.470;9.226;2023-03-21T11:20:25;-16696.69;;;18.96;100.00
3590;BME280;1809;48.470;9.226;2023-03-21T11:22:54;-16695.84;;;18.93;100.00
3590;BME280;1809;48.470;9.226;2023-03-21T11:25:40;-16689.69;;;18.71;100.00
3590;BME280;1809;48.470;9.226;2023-03-21T11:28:12;-16688.84;;;18.68;100.00
3590;BME280;1809;48.470;9.226;2023-03-21T11:30:54;-16690.81;;;18.75;100.00
3590;BME280;1809;48.470;9.226;2023-03-21T11:33:22;-16687.16;;;18.62;100.00
3590;BME280;1809;48.470;9.226;2023-03-21T11:38:36;-16675.13;;;18.18;100.00
3590;BME280;1809;48.470;9.226;2023-03-21T11:41:03;-16666.72;;;17.88;100.00
3590;BME280;1809;48.470;9.226;2023-03-21T11:43:31;-16664.50;;;17.80;100.00
3590;BME280;1809;48.470;9.226;2023-03-21T11:46:07;-16661.97;;;17.71;100.00
3590;BME280;1809;48.470;9.226;2023-03-21T11:48:41;-16661.97;;;17.71;100.00
3590;BME280;1809;48.470;9.226;2023-03-21T11:51:23;-16670.66;;;18.02;100.00
3590;BME280;1809;48.470;9.226;2023-03-21T11:54:13;-16674.44;;;18.16;100.00
3590;BME280;1809;48.470;9.226;2023-03-21T11:56:43;-16672.06;;;18.07;100.00
3590;BME280;1809;48.470;9.226;2023-03-21T11:59:33;-16670.38;;;18.01;100.00
3590;BME280;1809;48.470;9.226;2023-03-21T12:05:03;-16675.00;;;18.18;100.00
3590;BME280;1809;48.470;9.226;2023-03-21T12:10:50;-16667.00;;;17.89;100.00
3590;BME280;1809;48.470;9.226;2023-03-21T12:20:11;-16667.44;;;17.91;100.00
3590;BME280;1809;48.470;9.226;2023-03-21T12:22:25;-16669.53;;;17.98;100.00
3590;BME280;1809;48.470;9.226;2023-03-21T12:24:54;-16668.41;;;17.94;100.00
3590;BME280;1809;48.470;9.226;2023-03-21T12:41:22;-16664.22;;;17.79;100.00
3590;BME280;1809;48.470;9.226;2023-03-21T12:44:03;-16665.91;;;17.85;100.00
3590;BME280;1809;48.470;9.226;2023-03-21T12:46:44;-16664.91;;;17.82;100.00
3590;BME280;1809;48.470;9.226;2023-03-21T12:49:34;-16666.03;;;17.86;100.00
3590;BME280;1809;48.470;9.226;2023-03-21T12:52:15;-16679.03;;;18.33;100.00
3590;BME280;1809;48.470;9.226;2023-03-21T12:54:51;-16670.09;;;18.00;100.00
3590;BME280;1809;48.470;9.226;2023-03-21T12:57:28;-16671.22;;;18.04;100.00
3590;BME280;1809;48.470;9.226;2023-03-21T13:00:00;-16676.81;;;18.24;100.00
3590;BME280;1809;48.470;9.226;2023-03-21T13:02:41;-16680.72;;;18.39;100.00
3590;BME280;1809;48.470;9.226;2023-03-21T13:05:30;-16682.53;;;18.45;100.00
3590;BME280;1809;48.470;9.226;2023-03-21T13:08:06;-16683.94;;;18.50;100.00
3590;BME280;1809;48.470;9.226;2023-03-21T13:10:34;-16678.06;;;18.29;100.00
3590;BME280;1809;48.470;9.226;2023-03-21T13:13:25;-16692.75;;;18.82;100.00
3590;BME280;1809;48.470;9.226;2023-03-21T13:24:32;-16686.88;;;18.61;100.00
3590;BME280;1809;48.470;9.226;2023-03-21T13:29:45;-16695.28;;;18.91;100.00
3590;BME280;1809;48.470;9.226;2023-03-21T13:32:28;-16697.50;;;18.99;100.00
3590;BME280;1809;48.470;9.226;2023-03-21T13:34:57;-16704.22;;;19.23;100.00
3590;BME280;1809;48.470;9.226;2023-03-21T13:37:28;-16714.88;;;19.62;100.00
3590;BME280;1809;48.470;9.226;2023-03-21T13:39:59;-16712.34;;;19.53;100.00
3590;BME280;1809;48.470;9.226;2023-03-21T13:42:30;-16712.34;;;19.53;100.00
3590;BME280;1809;48.470;9.226;2023-03-21T13:44:59;-16707.31;;;19.34;100.00
3590;BME280;1809;48.470;9.226;2023-03-21T13:47:55;-16703.66;;;19.21;100.00
3590;BME280;1809;48.470;9.226;2023-03-21T13:53:09;-16697.94;;;19.01;100.00
3590;BME280;1809;48.470;9.226;2023-03-21T13:55:40;-16693.31;;;18.84;100.00
3590;BME280;1809;48.470;9.226;2023-03-21T14:01:38;-16693.31;;;18.84;100.00
3590;BME280;1809;48.470;9.226;2023-03-21T14:06:42;-16680.72;;;18.39;100.00
3590;BME280;1809;48.470;9.226;2023-03-21T14:09:23;-16685.63;;;18.56;100.00
3590;BME280;1809;48.470;9.226;2023-03-21T14:11:51;-16682.69;;;18.46;100.00
3590;BME280;1809;48.470;9.226;2023-03-21T14:14:19;-16679.88;;;18.36;100.00
3590;BME280;1809;48.470;9.226;2023-03-21T14:16:45;-16682.69;;;18.46;100.00
3590;BME280;1809;48.470;9.226;2023-03-21T14:19:11;-16673.59;;;18.13;100.00
3590;BME280;1809;48.470;9.226;2023-03-21T14:21:39;-16672.75;;;18.10;100.00
3590;BME280;1809;48.470;9.226;2023-03-21T14:24:13;-16672.59;;;18.09;100.00
3590;BME280;1809;48.470;9.226;2023-03-21T14:26:42;-16670.38;;;18.01;100.00
3590;BME280;1809;48.470;9.226;2023-03-21T14:29:33;-16673.44;;;18.12;100.00
3590;BME280;1809;48.470;9.226;2023-03-21T14:31:58;-16677.94;;;18.28;100.00
3590;BME280;1809;48.470;9.226;2023-03-21T14:34:26;-16675.97;;;18.21;100.00
3590;BME280;1809;48.470;9.226;2023-03-21T14:36:53;-16679.19;;;18.33;100.00
3590;BME280;1809;48.470;9.226;2023-03-21T14:39:26;-16674.84;;;18.17;100.00
3590;BME280;1809;48.470;9.226;2023-03-21T14:41:55;-16677.09;;;18.25;100.00
3590;BME280;1809;48.470;9.226;2023-03-21T14:44:26;-16671.50;;;18.05;100.00
3590;BME280;1809;48.470;9.226;2023-03-21T14:47:03;-16671.22;;;18.04;100.00